Time;durP1;ratioP1;P1;durP2;ratioP2;P2;SDS_P1;SDS_P2;PMS_P1;PMS_P2;Temp;Humidity;BMP_temperature;BMP_pressure;BME280_temperature;BME280_humidity;BME280_pressure;Samples;Min_cycle;Max_cycle;Signal;HPM_P1;HPM_P2
2024/02/06 00:00:19;;;;;;;17.33;13.60;;;;;;;;;;5111116;28;20449;-63
2024/02/06 00:02:45;;;;;;;17.67;14.80;;;;;;;;;;5094000;28;20481;-62
2024/02/06 00:05:12;;;;;;;21.10;14.67;;;;;;;;;;5100706;28;20491;-64
2024/02/06 00:07:38;;;;;;;20.50;14.30;;;;;;;;;;5097061;28;20443;-64
2024/02/06 00:10:07;;;;;;;16.70;13.33;;;;;;;;;;5097582;28;20466;-65
2024/02/06 00:12:33;;;;;;;20.73;14.20;;;;;;;;;;5102995;28;20515;-63
2024/02/06 00:15:00;;;;;;;22.50;14.40;;;;;;;;;;5103758;28;21087;-63
2024/02/06 00:17:27;;;;;;;21.33;15.53;;;;;;;;;;5106904;28;20485;-62
2024/02/06 00:19:53;;;;;;;19.67;14.20;;;;;;;;;;5091844;28;20481;-62
2024/02/06 00:22:20;;;;;;;22.50;16.07;;;;;;;;;;5114680;28;20507;-63
2024/02/06 00:24:49;;;;;;;22.87;15.60;;;;;;;;;;5093268;28;20466;-63
2024/02/06 00:27:16;;;;;;;21.03;15.80;;;;;;;;;;5099464;28;20467;-62
2024/02/06 00:29:43;;;;;;;19.43;15.10;;;;;;;;;;5092276;28;20456;-64
2024/02/06 00:32:10;;;;;;;23.67;15.33;;;;;;;;;;5092707;28;20480;-65
2024/02/06 00:34:36;;;;;;;18.40;15.63;;;;;;;;;;5103742;28;20890;-63
2024/02/06 00:37:03;;;;;;;19.80;15.17;;;;;;;;;;5095797;28;20455;-61
2024/02/06 00:39:30;;;;;;;21.07;15.87;;;;;;;;;;5096640;28;20495;-64
2024/02/06 00:41:57;;;;;;;21.20;15.87;;;;;;;;;;5103780;28;20454;-64
2024/02/06 00:44:25;;;;;;;21.17;15.60;;;;;;;;;;5095219;28;20464;-61
2024/02/06 00:46:51;;;;;;;18.50;14.60;;;;;;;;;;5110973;28;20464;-65
2024/02/06 00:49:18;;;;;;;19.73;15.90;;;;;;;;;;5097681;28;20485;-64
2024/02/06 00:51:44;;;;;;;19.53;15.27;;;;;;;;;;5105752;28;20454;-61
2024/02/06 00:54:11;;;;;;;20.00;15.70;;;;;;;;;;5092249;28;20455;-61
2024/02/06 00:56:37;;;;;;;19.03;14.37;;;;;;;;;;5104293;28;20431;-65
2024/02/06 00:59:04;;;;;;;17.20;14.10;;;;;;;;;;5097102;28;20487;-63
2024/02/06 01:01:32;;;;;;;25.00;15.80;;;;;;;;;;5099183;28;20484;-65
2024/02/06 01:03:58;;;;;;;21.33;14.87;;;;;;;;;;5097273;28;20454;-64
2024/02/06 01:06:25;;;;;;;21.80;15.73;;;;;;;;;;5098778;28;20450;-64
2024/02/06 01:08:51;;;;;;;20.93;15.27;;;;;;;;;;5097584;28;20944;-63
2024/02/06 01:11:18;;;;;;;19.53;15.83;;;;;;;;;;5102516;28;20454;-66
2024/02/06 01:13:44;;;;;;;24.03;17.50;;;;;;;;;;5091812;28;20447;-64
2024/02/06 01:16:11;;;;;;;19.00;15.43;;;;;;;;;;5097665;28;21306;-65
2024/02/06 01:18:38;;;;;;;18.70;16.27;;;;;;;;;;5097025;28;20478;-63
2024/02/06 01:21:05;;;;;;;20.33;15.90;;;;;;;;;;5094440;28;20456;-63
2024/02/06 01:23:32;;;;;;;17.43;15.07;;;;;;;;;;5101626;28;20516;-62
2024/02/06 01:25:58;;;;;;;21.80;16.47;;;;;;;;;;5088105;28;20458;-61
2024/02/06 01:28:25;;;;;;;19.47;15.63;;;;;;;;;;5113289;28;20481;-62
2024/02/06 01:30:51;;;;;;;19.03;14.30;;;;;;;;;;5108926;28;20975;-63
2024/02/06 01:33:18;;;;;;;22.27;14.30;;;;;;;;;;5110436;28;20458;-63
2024/02/06 01:35:46;;;;;;;19.23;14.37;;;;;;;;;;5090619;28;20470;-65
2024/02/06 01:38:12;;;;;;;20.40;13.30;;;;;;;;;;5092035;28;20516;-64
2024/02/06 01:40:40;;;;;;;16.90;12.40;;;;;;;;;;5090889;28;20456;-64
2024/02/06 01:43:07;;;;;;;13.40;11.90;;;;;;;;;;5099997;28;20496;-63
2024/02/06 01:45:33;;;;;;;13.73;11.60;;;;;;;;;;5095447;28;20502;-65
2024/02/06 01:48:01;;;;;;;15.63;12.00;;;;;;;;;;5087533;28;20483;-62
2024/02/06 01:50:28;;;;;;;15.37;11.67;;;;;;;;;;5093310;28;20527;-64
2024/02/06 01:52:56;;;;;;;21.17;13.23;;;;;;;;;;5087123;28;20444;-65
2024/02/06 01:55:22;;;;;;;18.43;11.33;;;;;;;;;;5099000;28;20517;-64
2024/02/06 01:57:49;;;;;;;17.63;12.70;;;;;;;;;;5104170;28;20819;-65
2024/02/06 02:00:16;;;;;;;17.17;12.80;;;;;;;;;;5097039;28;21331;-63
2024/02/06 02:02:43;;;;;;;20.23;13.43;;;;;;;;;;5101859;28;20474;-64
2024/02/06 02:05:09;;;;;;;23.03;13.23;;;;;;;;;;5091378;28;20482;-64
2024/02/06 02:07:36;;;;;;;16.10;11.53;;;;;;;;;;5097033;28;20460;-63
2024/02/06 02:10:04;;;;;;;19.43;11.40;;;;;;;;;;5085030;28;20462;-61
2024/02/06 02:12:35;;;;;;;15.90;10.80;;;;;;;;;;5108951;28;20446;-62
2024/02/06 02:15:01;;;;;;;19.53;12.00;;;;;;;;;;5097149;28;20463;-62
2024/02/06 02:17:28;;;;;;;16.30;12.77;;;;;;;;;;5096295;28;20459;-62
2024/02/06 02:19:54;;;;;;;18.40;12.67;;;;;;;;;;5085463;28;21068;-62
2024/02/06 02:22:22;;;;;;;16.03;12.20;;;;;;;;;;5088778;28;20485;-64
2024/02/06 02:24:49;;;;;;;15.87;12.07;;;;;;;;;;5105257;28;20490;-63
2024/02/06 02:27:15;;;;;;;15.70;12.00;;;;;;;;;;5098861;28;20471;-61
2024/02/06 02:29:42;;;;;;;13.20;11.20;;;;;;;;;;5099433;28;20466;-64
2024/02/06 02:32:09;;;;;;;20.93;13.03;;;;;;;;;;5092522;28;20488;-64
2024/02/06 02:34:36;;;;;;;13.60;12.20;;;;;;;;;;5096446;28;20489;-63
2024/02/06 02:37:02;;;;;;;15.33;11.60;;;;;;;;;;5082830;28;20550;-63
2024/02/06 02:39:30;;;;;;;13.27;10.37;;;;;;;;;;5099504;28;20502;-65
2024/02/06 02:41:57;;;;;;;14.97;12.13;;;;;;;;;;5099718;28;20979;-63
2024/02/06 02:44:24;;;;;;;16.33;13.03;;;;;;;;;;5095806;28;20473;-64
2024/02/06 02:46:50;;;;;;;16.17;12.67;;;;;;;;;;5096161;28;20486;-65
2024/02/06 02:49:17;;;;;;;18.13;12.83;;;;;;;;;;5090361;28;20448;-63
2024/02/06 02:51:43;;;;;;;19.00;13.43;;;;;;;;;;5094238;28;20460;-62
2024/02/06 02:54:11;;;;;;;17.90;13.80;;;;;;;;;;5091606;28;20443;-63
2024/02/06 02:56:39;;;;;;;18.10;14.20;;;;;;;;;;5093682;28;20527;-64
2024/02/06 02:59:05;;;;;;;14.50;12.37;;;;;;;;;;5086785;28;20523;-65
2024/02/06 03:01:32;;;;;;;17.60;13.20;;;;;;;;;;5099214;28;20480;-64
2024/02/06 03:03:59;;;;;;;13.67;11.27;;;;;;;;;;5090952;28;20792;-63
2024/02/06 03:06:25;;;;;;;13.83;12.00;;;;;;;;;;5098941;28;20447;-61
2024/02/06 03:08:51;;;;;;;17.40;12.97;;;;;;;;;;5097162;28;20481;-61
2024/02/06 03:11:18;;;;;;;18.33;13.23;;;;;;;;;;5106348;28;20477;-63
2024/02/06 03:13:46;;;;;;;16.50;12.83;;;;;;;;;;5100958;28;20522;-63
2024/02/06 03:16:13;;;;;;;19.00;13.77;;;;;;;;;;5092724;28;20484;-64
2024/02/06 03:18:39;;;;;;;19.30;13.50;;;;;;;;;;5092425;28;20513;-63
2024/02/06 03:21:06;;;;;;;18.77;14.03;;;;;;;;;;5086001;28;20484;-64
2024/02/06 03:23:32;;;;;;;18.90;12.60;;;;;;;;;;5086431;28;20488;-62
2024/02/06 03:25:59;;;;;;;14.77;12.37;;;;;;;;;;5096464;28;20484;-63
2024/02/06 03:28:25;;;;;;;15.23;12.60;;;;;;;;;;5102858;28;20977;-65
2024/02/06 03:30:53;;;;;;;18.30;13.27;;;;;;;;;;5102848;28;20437;-62
2024/02/06 03:33:19;;;;;;;18.13;13.00;;;;;;;;;;5100010;28;20481;-65
2024/02/06 03:35:46;;;;;;;20.67;13.80;;;;;;;;;;5093570;28;20490;-65
2024/02/06 03:38:12;;;;;;;18.27;13.73;;;;;;;;;;5091098;28;20497;-64
2024/02/06 03:40:39;;;;;;;19.50;13.40;;;;;;;;;;5097249;28;20493;-62
2024/02/06 03:43:06;;;;;;;17.43;13.57;;;;;;;;;;5103571;28;20547;-62
2024/02/06 03:45:33;;;;;;;22.43;14.20;;;;;;;;;;5104195;28;20450;-65
2024/02/06 03:48:01;;;;;;;16.50;13.40;;;;;;;;;;5091618;28;20832;-65
2024/02/06 03:50:27;;;;;;;16.07;13.07;;;;;;;;;;5109617;28;20450;-65
2024/02/06 03:52:54;;;;;;;18.10;12.70;;;;;;;;;;5102933;28;20475;-63
2024/02/06 03:55:20;;;;;;;16.53;13.17;;;;;;;;;;5105226;28;20509;-63
2024/02/06 03:57:47;;;;;;;17.80;12.97;;;;;;;;;;5106641;28;20455;-61
2024/02/06 04:00:14;;;;;;;16.93;13.43;;;;;;;;;;5107885;28;20478;-65
2024/02/06 04:02:41;;;;;;;18.50;12.70;;;;;;;;;;5103395;28;20503;-66
2024/02/06 04:05:09;;;;;;;19.53;13.30;;;;;;;;;;5101214;28;20450;-62
2024/02/06 04:07:35;;;;;;;21.17;12.67;;;;;;;;;;5105657;28;21006;-64
2024/02/06 04:10:02;;;;;;;18.90;12.83;;;;;;;;;;5104617;28;20450;-64
2024/02/06 04:12:28;;;;;;;20.53;12.23;;;;;;;;;;5114609;28;20458;-61
2024/02/06 04:14:55;;;;;;;20.53;11.67;;;;;;;;;;5096733;28;20464;-65
2024/02/06 04:17:21;;;;;;;20.60;11.90;;;;;;;;;;5108085;28;20459;-63
2024/02/06 04:19:48;;;;;;;18.20;13.07;;;;;;;;;;5108551;28;20478;-62
2024/02/06 04:22:15;;;;;;;14.80;12.27;;;;;;;;;;5101601;28;20489;-63
2024/02/06 04:24:42;;;;;;;16.07;11.10;;;;;;;;;;5095837;28;20455;-62
2024/02/06 04:27:09;;;;;;;13.60;11.33;;;;;;;;;;5093739;28;20492;-63
2024/02/06 04:29:35;;;;;;;12.67;10.60;;;;;;;;;;5097944;28;20488;-63
2024/02/06 04:32:03;;;;;;;13.40;11.07;;;;;;;;;;5094562;28;20444;-64
2024/02/06 04:34:29;;;;;;;15.50;10.67;;;;;;;;;;5101874;28;20834;-65
2024/02/06 04:36:56;;;;;;;14.73;11.13;;;;;;;;;;5095830;28;20480;-62
2024/02/06 04:39:24;;;;;;;16.13;10.77;;;;;;;;;;5085369;28;20589;-65
2024/02/06 04:41:52;;;;;;;12.70;9.50;;;;;;;;;;5104956;28;20477;-64
2024/02/06 04:44:18;;;;;;;15.47;10.30;;;;;;;;;;5101175;28;20467;-62
2024/02/06 04:46:45;;;;;;;16.17;10.50;;;;;;;;;;5103088;28;20459;-64
2024/02/06 04:49:11;;;;;;;11.43;9.40;;;;;;;;;;5108848;28;20442;-64
2024/02/06 04:51:38;;;;;;;18.87;9.77;;;;;;;;;;5107900;28;20485;-63
2024/02/06 04:54:04;;;;;;;12.60;8.63;;;;;;;;;;5111158;28;20450;-64
2024/02/06 04:56:32;;;;;;;14.27;10.57;;;;;;;;;;5105089;28;20874;-64
2024/02/06 04:59:00;;;;;;;15.67;10.53;;;;;;;;;;5089678;28;20468;-66
2024/02/06 05:01:27;;;;;;;14.80;10.60;;;;;;;;;;5099075;28;20483;-63
2024/02/06 05:03:53;;;;;;;14.10;10.83;;;;;;;;;;5096386;28;20451;-64
2024/02/06 05:06:21;;;;;;;15.70;9.80;;;;;;;;;;5094313;28;20498;-64
2024/02/06 05:08:47;;;;;;;16.60;10.43;;;;;;;;;;5085149;28;20448;-64
2024/02/06 05:11:13;;;;;;;11.73;10.33;;;;;;;;;;5092688;28;20494;-64
2024/02/06 05:13:42;;;;;;;13.00;9.70;;;;;;;;;;5105689;28;20449;-64
2024/02/06 05:16:09;;;;;;;12.00;10.13;;;;;;;;;;5094685;28;20859;-63
2024/02/06 05:18:35;;;;;;;15.43;10.50;;;;;;;;;;5096135;28;20455;-64
2024/02/06 05:21:01;;;;;;;13.10;9.60;;;;;;;;;;5089491;28;20522;-65
2024/02/06 05:23:28;;;;;;;11.10;9.93;;;;;;;;;;5095103;28;20471;-63
2024/02/06 05:25:54;;;;;;;12.67;9.70;;;;;;;;;;5103415;28;20911;-63
2024/02/06 05:28:21;;;;;;;13.07;10.90;;;;;;;;;;5089018;28;20451;-64
2024/02/06 05:30:49;;;;;;;18.10;10.70;;;;;;;;;;5097168;28;21021;-62
2024/02/06 05:33:16;;;;;;;14.50;10.80;;;;;;;;;;5090279;28;20440;-63
2024/02/06 05:35:42;;;;;;;15.87;11.20;;;;;;;;;;5100541;28;20450;-64
2024/02/06 05:38:09;;;;;;;12.50;10.80;;;;;;;;;;5095455;28;20529;-65
2024/02/06 05:40:36;;;;;;;13.70;10.93;;;;;;;;;;5096216;28;20507;-64
2024/02/06 05:43:02;;;;;;;15.40;11.47;;;;;;;;;;5095204;28;20965;-64
2024/02/06 05:45:29;;;;;;;14.37;10.70;;;;;;;;;;5096465;28;20454;-65
2024/02/06 05:47:59;;;;;;;14.63;10.57;;;;;;;;;;5097930;28;20470;-63
2024/02/06 05:50:25;;;;;;;16.30;12.90;;;;;;;;;;5093535;28;20460;-63
2024/02/06 05:52:52;;;;;;;17.97;11.07;;;;;;;;;;5096053;28;20451;-64
2024/02/06 05:55:18;;;;;;;13.70;10.67;;;;;;;;;;5089991;28;20454;-64
2024/02/06 05:57:44;;;;;;;12.73;11.23;;;;;;;;;;5090325;28;20483;-64
2024/02/06 06:00:12;;;;;;;18.77;11.43;;;;;;;;;;5091257;28;20530;-65
2024/02/06 06:02:38;;;;;;;13.70;11.53;;;;;;;;;;5089939;28;20451;-63
2024/02/06 06:05:07;;;;;;;13.17;11.07;;;;;;;;;;5096861;28;20461;-61
2024/02/06 06:07:34;;;;;;;16.33;11.27;;;;;;;;;;5087938;28;20445;-62
2024/02/06 06:10:00;;;;;;;13.30;11.57;;;;;;;;;;5103136;28;20486;-63
2024/02/06 06:12:26;;;;;;;15.23;12.57;;;;;;;;;;5096250;28;20486;-61
2024/02/06 06:14:53;;;;;;;22.47;13.13;;;;;;;;;;5083566;28;20452;-64
2024/02/06 06:17:19;;;;;;;23.00;12.13;;;;;;;;;;5083832;28;20469;-63
2024/02/06 06:19:46;;;;;;;16.17;12.10;;;;;;;;;;5089229;28;20521;-63
2024/02/06 06:22:14;;;;;;;14.07;11.47;;;;;;;;;;5100057;28;20475;-63
2024/02/06 06:24:41;;;;;;;14.93;12.20;;;;;;;;;;5099950;28;20471;-62
2024/02/06 06:27:07;;;;;;;15.67;12.50;;;;;;;;;;5097807;28;20486;-63
2024/02/06 06:29:34;;;;;;;14.83;12.40;;;;;;;;;;5096513;28;20873;-63
2024/02/06 06:32:00;;;;;;;17.40;11.10;;;;;;;;;;5085072;28;20479;-63
2024/02/06 06:34:27;;;;;;;19.90;12.63;;;;;;;;;;5085044;28;20484;-64
2024/02/06 06:36:53;;;;;;;16.47;11.27;;;;;;;;;;5083403;28;20479;-64
2024/02/06 06:39:21;;;;;;;17.20;10.90;;;;;;;;;;5089560;28;20511;-63
2024/02/06 06:41:47;;;;;;;15.97;11.37;;;;;;;;;;5090801;28;20451;-63
2024/02/06 06:44:14;;;;;;;14.83;11.43;;;;;;;;;;5087016;28;20455;-64
2024/02/06 06:46:41;;;;;;;23.93;12.50;;;;;;;;;;5094060;28;20496;-64
2024/02/06 06:49:07;;;;;;;13.03;11.63;;;;;;;;;;5088289;28;20863;-62
2024/02/06 06:51:33;;;;;;;15.50;10.73;;;;;;;;;;5090557;28;20450;-64
2024/02/06 06:54:00;;;;;;;13.50;12.10;;;;;;;;;;5089322;28;20455;-63
2024/02/06 06:56:28;;;;;;;16.57;13.47;;;;;;;;;;5094265;28;20466;-64
2024/02/06 06:58:54;;;;;;;20.80;12.80;;;;;;;;;;5089394;28;20475;-65
2024/02/06 07:01:21;;;;;;;16.93;12.07;;;;;;;;;;5087536;28;20518;-63
2024/02/06 07:03:48;;;;;;;16.60;12.90;;;;;;;;;;5091230;28;20458;-65
2024/02/06 07:06:14;;;;;;;17.53;13.17;;;;;;;;;;5084121;28;20483;-64
2024/02/06 07:08:40;;;;;;;14.67;11.70;;;;;;;;;;5093816;28;20491;-65
2024/02/06 07:11:07;;;;;;;17.77;13.70;;;;;;;;;;5092821;28;20482;-65
2024/02/06 07:13:35;;;;;;;17.80;13.30;;;;;;;;;;5092397;28;20486;-66
2024/02/06 07:16:01;;;;;;;15.07;12.43;;;;;;;;;;5089325;28;20446;-65
2024/02/06 07:18:28;;;;;;;17.40;12.57;;;;;;;;;;5087468;28;20487;-66
2024/02/06 07:20:54;;;;;;;19.50;12.57;;;;;;;;;;5082543;28;20519;-65
2024/02/06 07:23:21;;;;;;;18.83;12.57;;;;;;;;;;5081784;28;20447;-65
2024/02/06 07:25:47;;;;;;;15.10;11.53;;;;;;;;;;5086249;28;20448;-63
2024/02/06 07:28:14;;;;;;;16.20;13.17;;;;;;;;;;5097543;28;20490;-63
2024/02/06 07:30:42;;;;;;;18.03;12.20;;;;;;;;;;5089735;28;20804;-66
2024/02/06 07:33:09;;;;;;;23.20;14.10;;;;;;;;;;5100610;28;20482;-64
2024/02/06 07:35:36;;;;;;;14.73;12.13;;;;;;;;;;5088204;28;20489;-66
2024/02/06 07:38:03;;;;;;;19.67;12.60;;;;;;;;;;5082522;28;20474;-64
2024/02/06 07:40:29;;;;;;;15.93;13.10;;;;;;;;;;5093327;28;20523;-63
2024/02/06 07:43:00;;;;;;;19.87;13.07;;;;;;;;;;5095140;28;20478;-65
2024/02/06 07:45:26;;;;;;;20.90;13.10;;;;;;;;;;5100496;28;20942;-64
2024/02/06 07:47:54;;;;;;;17.60;13.30;;;;;;;;;;5083218;28;20502;-61
2024/02/06 07:50:21;;;;;;;17.13;12.87;;;;;;;;;;5082214;28;20491;-66
2024/02/06 07:52:47;;;;;;;15.90;12.33;;;;;;;;;;5086743;28;20462;-64
2024/02/06 07:55:14;;;;;;;18.63;13.70;;;;;;;;;;5096208;28;20439;-64
2024/02/06 07:57:40;;;;;;;19.77;11.00;;;;;;;;;;5102337;28;20480;-63
2024/02/06 08:00:09;;;;;;;14.43;12.10;;;;;;;;;;5087484;28;20562;-64
2024/02/06 08:02:35;;;;;;;20.50;13.27;;;;;;;;;;5105528;28;20447;-63
2024/02/06 08:05:04;;;;;;;14.80;11.20;;;;;;;;;;5096331;28;20443;-63
2024/02/06 08:07:31;;;;;;;14.63;11.03;;;;;;;;;;5096268;28;20467;-65
2024/02/06 08:09:58;;;;;;;15.90;13.53;;;;;;;;;;5093169;28;20451;-65
2024/02/06 08:12:24;;;;;;;18.17;12.70;;;;;;;;;;5093323;28;20947;-66
2024/02/06 08:14:51;;;;;;;15.93;10.93;;;;;;;;;;5095637;28;20447;-63
2024/02/06 08:17:18;;;;;;;16.47;11.43;;;;;;;;;;5095179;28;20451;-64
2024/02/06 08:19:45;;;;;;;15.40;12.63;;;;;;;;;;5087511;28;20455;-65
2024/02/06 08:22:13;;;;;;;16.73;12.50;;;;;;;;;;5091776;28;20478;-66
2024/02/06 08:24:39;;;;;;;17.00;12.73;;;;;;;;;;5091617;28;20491;-65
2024/02/06 08:27:06;;;;;;;17.00;12.80;;;;;;;;;;5089536;28;20508;-65
2024/02/06 08:29:33;;;;;;;16.83;12.47;;;;;;;;;;5088002;28;20465;-62
2024/02/06 08:31:59;;;;;;;19.67;12.97;;;;;;;;;;5088734;28;20519;-64
2024/02/06 08:34:25;;;;;;;16.03;11.87;;;;;;;;;;5094138;28;20483;-64
2024/02/06 08:36:52;;;;;;;14.47;11.80;;;;;;;;;;5090148;28;20460;-64
2024/02/06 08:39:20;;;;;;;24.50;13.50;;;;;;;;;;5095439;28;20523;-65
2024/02/06 08:41:47;;;;;;;22.10;12.43;;;;;;;;;;5086575;28;20495;-62
2024/02/06 08:44:14;;;;;;;18.03;13.17;;;;;;;;;;5098437;28;20463;-65
2024/02/06 08:46:40;;;;;;;17.80;11.83;;;;;;;;;;5095644;28;20487;-64
2024/02/06 08:49:08;;;;;;;20.40;12.73;;;;;;;;;;5093454;28;20448;-65
2024/02/06 08:51:34;;;;;;;21.23;13.30;;;;;;;;;;5096462;28;20543;-64
2024/02/06 08:54:01;;;;;;;18.70;13.43;;;;;;;;;;5086818;28;20454;-67
2024/02/06 08:56:31;;;;;;;15.27;12.20;;;;;;;;;;5091571;28;20458;-65
2024/02/06 08:58:57;;;;;;;20.53;12.97;;;;;;;;;;5090434;28;20505;-65
2024/02/06 09:01:24;;;;;;;23.90;14.10;;;;;;;;;;5104337;28;20515;-66
2024/02/06 09:03:51;;;;;;;15.00;11.77;;;;;;;;;;5101567;28;20458;-63
2024/02/06 09:06:18;;;;;;;19.27;12.33;;;;;;;;;;5085865;28;20473;-62
2024/02/06 09:08:44;;;;;;;21.87;12.77;;;;;;;;;;5094601;28;20450;-65
2024/02/06 09:11:11;;;;;;;15.60;11.93;;;;;;;;;;5089529;28;20768;-63
2024/02/06 09:13:39;;;;;;;17.60;12.23;;;;;;;;;;5087513;28;20451;-62
2024/02/06 09:16:06;;;;;;;18.13;12.80;;;;;;;;;;5086692;28;20463;-62
2024/02/06 09:18:32;;;;;;;19.07;11.23;;;;;;;;;;5096307;28;20509;-65
2024/02/06 09:20:59;;;;;;;15.80;11.00;;;;;;;;;;5097231;28;20490;-63
2024/02/06 09:23:25;;;;;;;15.80;11.83;;;;;;;;;;5099551;28;20455;-66
2024/02/06 09:25:53;;;;;;;31.97;11.30;;;;;;;;;;5083772;28;20682;-66
2024/02/06 09:28:19;;;;;;;14.00;11.07;;;;;;;;;;5089323;28;20462;-62
2024/02/06 09:30:47;;;;;;;14.70;11.63;;;;;;;;;;5080877;28;20444;-64
2024/02/06 09:33:14;;;;;;;15.47;11.00;;;;;;;;;;5086085;28;20458;-63
2024/02/06 09:35:40;;;;;;;14.53;10.60;;;;;;;;;;5089573;28;20463;-65
2024/02/06 09:38:07;;;;;;;16.60;11.03;;;;;;;;;;5091132;28;20467;-64
2024/02/06 09:40:33;;;;;;;15.30;11.07;;;;;;;;;;5081149;28;20531;-65
2024/02/06 09:43:00;;;;;;;13.80;10.87;;;;;;;;;;5094548;28;20475;-65
2024/02/06 09:45:27;;;;;;;17.03;10.70;;;;;;;;;;5097991;28;20486;-66
2024/02/06 09:47:55;;;;;;;15.23;10.90;;;;;;;;;;5095321;28;20459;-67
2024/02/06 09:50:21;;;;;;;16.03;10.50;;;;;;;;;;5098351;28;20457;-66
2024/02/06 09:52:48;;;;;;;14.30;10.20;;;;;;;;;;5091374;28;20482;-65
2024/02/06 09:55:15;;;;;;;12.63;10.03;;;;;;;;;;5086701;28;20487;-66
2024/02/06 09:57:43;;;;;;;24.03;10.80;;;;;;;;;;5097529;28;20483;-64
2024/02/06 10:00:10;;;;;;;18.20;11.40;;;;;;;;;;5082537;28;20488;-64
2024/02/06 10:02:38;;;;;;;13.93;10.50;;;;;;;;;;5093037;28;20490;-67
2024/02/06 10:05:07;;;;;;;14.80;9.30;;;;;;;;;;5088459;28;20455;-66
2024/02/06 10:07:34;;;;;;;13.27;9.93;;;;;;;;;;5090498;28;21351;-65
2024/02/06 10:10:02;;;;;;;11.90;10.50;;;;;;;;;;5094597;28;20468;-63
2024/02/06 10:12:30;;;;;;;15.20;10.03;;;;;;;;;;5083173;28;20447;-66
2024/02/06 10:14:56;;;;;;;13.03;10.47;;;;;;;;;;5084816;28;20981;-65
2024/02/06 10:17:23;;;;;;;16.37;9.70;;;;;;;;;;5090362;28;20496;-63
2024/02/06 10:19:50;;;;;;;15.77;9.10;;;;;;;;;;5081052;28;20484;-63
2024/02/06 10:22:18;;;;;;;16.87;9.80;;;;;;;;;;5086369;28;20563;-64
2024/02/06 10:24:44;;;;;;;11.93;9.80;;;;;;;;;;5079046;28;20470;-65
2024/02/06 10:27:11;;;;;;;15.53;10.30;;;;;;;;;;5083507;28;20443;-65
2024/02/06 10:29:38;;;;;;;12.80;9.10;;;;;;;;;;5089348;28;20469;-65
2024/02/06 10:32:12;;;;;;;13.00;9.30;;;;;;;;;;5086464;28;20462;-66
2024/02/06 10:34:39;;;;;;;16.20;8.60;;;;;;;;;;5092000;28;20501;-64
2024/02/06 10:37:05;;;;;;;13.43;8.57;;;;;;;;;;5089671;28;20491;-64
2024/02/06 10:39:33;;;;;;;13.77;9.73;;;;;;;;;;5090260;28;20488;-63
2024/02/06 10:42:01;;;;;;;15.67;9.80;;;;;;;;;;5084191;28;20497;-64
2024/02/06 10:44:28;;;;;;;13.10;8.40;;;;;;;;;;5090283;28;20518;-63
2024/02/06 10:46:58;;;;;;;10.50;8.80;;;;;;;;;;5097985;28;20459;-63
2024/02/06 10:49:25;;;;;;;9.93;8.73;;;;;;;;;;5080608;28;20467;-65
2024/02/06 10:51:51;;;;;;;15.07;8.30;;;;;;;;;;5093524;28;20534;-64
2024/02/06 10:54:20;;;;;;;13.00;8.93;;;;;;;;;;5094953;28;20710;-61
2024/02/06 10:56:52;;;;;;;18.90;8.93;;;;;;;;;;5093043;28;20451;-65
2024/02/06 10:59:21;;;;;;;18.43;8.60;;;;;;;;;;5091713;28;20512;-65
2024/02/06 11:01:48;;;;;;;16.57;8.80;;;;;;;;;;5097889;28;20527;-64
2024/02/06 11:04:15;;;;;;;13.50;8.67;;;;;;;;;;5091357;28;20463;-64
2024/02/06 11:06:44;;;;;;;10.27;8.07;;;;;;;;;;5080257;28;20456;-66
2024/02/06 11:09:12;;;;;;;16.03;8.30;;;;;;;;;;5085256;28;20452;-64
2024/02/06 11:11:39;;;;;;;10.40;7.53;;;;;;;;;;5089460;28;20462;-64
2024/02/06 11:14:09;;;;;;;11.03;7.23;;;;;;;;;;5098542;28;20450;-64
2024/02/06 11:16:41;;;;;;;13.17;7.70;;;;;;;;;;5093362;28;20446;-63
2024/02/06 11:19:11;;;;;;;7.60;6.23;;;;;;;;;;5086970;28;20464;-63
2024/02/06 11:21:39;;;;;;;13.43;6.43;;;;;;;;;;5096765;28;20566;-66
2024/02/06 11:24:06;;;;;;;7.60;6.80;;;;;;;;;;5093189;28;20447;-66
2024/02/06 11:26:33;;;;;;;8.47;6.63;;;;;;;;;;5094950;28;20523;-64
2024/02/06 11:29:06;;;;;;;12.47;6.53;;;;;;;;;;5095287;28;20506;-63
2024/02/06 11:31:35;;;;;;;8.53;5.53;;;;;;;;;;5106972;28;20460;-62
2024/02/06 11:34:10;;;;;;;8.33;6.10;;;;;;;;;;5090393;28;20470;-64
2024/02/06 11:36:37;;;;;;;6.17;5.33;;;;;;;;;;5096678;28;20486;-66
2024/02/06 11:39:07;;;;;;;6.80;4.83;;;;;;;;;;5087216;28;20513;-66
2024/02/06 11:41:33;;;;;;;6.23;5.53;;;;;;;;;;5091830;28;20488;-66
2024/02/06 11:44:07;;;;;;;7.50;5.63;;;;;;;;;;5089653;28;20463;-66
2024/02/06 11:46:42;;;;;;;8.17;5.93;;;;;;;;;;5085701;28;20451;-64
2024/02/06 11:49:08;;;;;;;6.70;5.97;;;;;;;;;;5089285;28;20482;-65
2024/02/06 11:51:35;;;;;;;7.93;5.73;;;;;;;;;;5087862;28;20483;-64
2024/02/06 11:54:10;;;;;;;5.80;5.20;;;;;;;;;;5090986;28;20442;-64
2024/02/06 11:56:37;;;;;;;6.03;5.43;;;;;;;;;;5093927;28;20442;-64
2024/02/06 11:59:03;;;;;;;7.03;6.37;;;;;;;;;;5089260;28;20527;-64
2024/02/06 12:01:30;;;;;;;8.70;7.17;;;;;;;;;;5085542;28;20490;-63
2024/02/06 12:03:59;;;;;;;9.30;7.07;;;;;;;;;;5098964;28;20481;-64
2024/02/06 12:06:25;;;;;;;11.80;7.97;;;;;;;;;;5092455;28;20459;-64
2024/02/06 12:09:00;;;;;;;7.80;7.00;;;;;;;;;;5093822;28;20460;-64
2024/02/06 12:11:26;;;;;;;11.53;8.17;;;;;;;;;;5088983;28;20503;-61
2024/02/06 12:13:53;;;;;;;9.73;8.00;;;;;;;;;;5088810;28;20456;-66
2024/02/06 12:16:19;;;;;;;9.80;7.57;;;;;;;;;;5091608;28;20458;-65
2024/02/06 12:18:50;;;;;;;8.43;6.50;;;;;;;;;;5086826;28;20458;-64
2024/02/06 12:21:22;;;;;;;8.33;7.17;;;;;;;;;;5089059;28;20471;-63
2024/02/06 12:23:48;;;;;;;11.43;7.60;;;;;;;;;;5092184;28;20448;-66
2024/02/06 12:26:20;;;;;;;9.17;7.10;;;;;;;;;;5100244;28;20891;-64
2024/02/06 12:28:47;;;;;;;9.70;7.93;;;;;;;;;;5087832;28;20471;-66
2024/02/06 12:31:13;;;;;;;8.00;7.00;;;;;;;;;;5097214;28;20490;-63
2024/02/06 12:33:40;;;;;;;7.70;7.00;;;;;;;;;;5099616;28;20516;-64
2024/02/06 12:36:08;;;;;;;9.17;7.27;;;;;;;;;;5082128;28;20462;-63
2024/02/06 12:38:36;;;;;;;8.33;7.27;;;;;;;;;;5081307;28;20986;-63
2024/02/06 12:41:03;;;;;;;8.83;7.23;;;;;;;;;;5082891;28;20479;-65
2024/02/06 12:43:29;;;;;;;8.57;7.73;;;;;;;;;;5091038;28;20917;-64
2024/02/06 12:45:56;;;;;;;9.93;6.67;;;;;;;;;;5091727;28;20444;-63
2024/02/06 12:48:22;;;;;;;14.17;7.23;;;;;;;;;;5095278;28;20447;-65
2024/02/06 12:50:49;;;;;;;10.67;8.03;;;;;;;;;;5095418;28;20495;-64
2024/02/06 12:53:22;;;;;;;11.50;7.60;;;;;;;;;;5087742;28;20538;-65
2024/02/06 12:55:51;;;;;;;8.47;7.50;;;;;;;;;;5101197;28;20434;-65
2024/02/06 12:58:18;;;;;;;12.30;7.80;;;;;;;;;;5100755;28;20482;-61
2024/02/06 13:00:45;;;;;;;11.00;8.20;;;;;;;;;;5087293;28;20458;-63
2024/02/06 13:03:14;;;;;;;9.37;8.50;;;;;;;;;;5087967;28;20536;-64
2024/02/06 13:05:41;;;;;;;13.63;8.03;;;;;;;;;;5082199;28;21157;-66
2024/02/06 13:08:09;;;;;;;11.70;8.23;;;;;;;;;;5094738;28;20456;-66
2024/02/06 13:10:35;;;;;;;9.47;8.57;;;;;;;;;;5090489;28;20469;-65
2024/02/06 13:13:04;;;;;;;9.87;8.73;;;;;;;;;;5085812;28;20471;-65
2024/02/06 13:15:31;;;;;;;10.83;8.00;;;;;;;;;;5086384;28;20462;-62
2024/02/06 13:17:58;;;;;;;11.63;8.00;;;;;;;;;;5083561;28;20897;-64
2024/02/06 13:20:24;;;;;;;10.33;7.00;;;;;;;;;;5092674;28;20470;-65
2024/02/06 13:22:51;;;;;;;7.33;6.63;;;;;;;;;;5090139;28;20515;-63
2024/02/06 13:25:18;;;;;;;9.77;6.80;;;;;;;;;;5084523;28;20444;-64
2024/02/06 13:27:44;;;;;;;8.03;6.63;;;;;;;;;;5088099;28;20460;-64
2024/02/06 13:30:16;;;;;;;8.70;6.60;;;;;;;;;;5079214;28;20837;-63
2024/02/06 13:32:42;;;;;;;7.53;5.90;;;;;;;;;;5087532;28;20463;-65
2024/02/06 13:35:09;;;;;;;7.70;6.13;;;;;;;;;;5095362;28;20467;-64
2024/02/06 13:37:36;;;;;;;11.10;6.07;;;;;;;;;;5086542;28;20467;-65
2024/02/06 13:40:05;;;;;;;10.03;7.23;;;;;;;;;;5086557;28;20532;-66
2024/02/06 13:42:32;;;;;;;7.03;5.87;;;;;;;;;;5096829;28;20487;-64
2024/02/06 13:44:58;;;;;;;11.80;6.90;;;;;;;;;;5086688;28;20489;-64
2024/02/06 13:47:26;;;;;;;5.90;5.30;;;;;;;;;;5084662;28;20459;-65
2024/02/06 13:49:52;;;;;;;7.77;6.23;;;;;;;;;;5097876;28;20508;-60
2024/02/06 13:52:19;;;;;;;6.90;6.20;;;;;;;;;;5084676;28;20498;-64
2024/02/06 13:54:45;;;;;;;9.47;6.53;;;;;;;;;;5089724;28;20452;-66
2024/02/06 13:57:14;;;;;;;10.47;6.80;;;;;;;;;;5085065;28;20468;-67
2024/02/06 13:59:41;;;;;;;14.53;7.17;;;;;;;;;;5094220;28;20476;-67
2024/02/06 14:02:07;;;;;;;11.37;8.10;;;;;;;;;;5097549;28;20483;-66
2024/02/06 14:04:35;;;;;;;8.60;7.67;;;;;;;;;;5091949;28;20497;-64
2024/02/06 14:07:01;;;;;;;11.07;8.50;;;;;;;;;;5088692;28;22078;-65
2024/02/06 14:09:28;;;;;;;11.53;8.60;;;;;;;;;;5089803;28;20440;-64
2024/02/06 14:11:57;;;;;;;12.50;8.53;;;;;;;;;;5086087;28;20463;-65
2024/02/06 14:14:24;;;;;;;11.00;8.80;;;;;;;;;;5089937;28;20580;-65
2024/02/06 14:16:50;;;;;;;13.90;9.70;;;;;;;;;;5086696;28;20481;-64
2024/02/06 14:19:17;;;;;;;12.57;10.63;;;;;;;;;;5096433;28;20481;-64
2024/02/06 14:21:47;;;;;;;15.10;11.70;;;;;;;;;;5094676;28;20574;-64